Skip to Main Content

Video Notice: If you see just a black screen when trying to view Live Traffic cameras, please click inside the window to get video to play. An update to certain browsers is not allowing the video to auto-play when the window opens. 

SEARCH:
Location Air RH Dwp Precip Type Wind Speed Wind Gust Direction Pavement Temperature Date/Time
Hatem Bridge US 40 E/B 77 75 69 None 7 mph 9 mph NW 83 - 83 9/18/2018 4:48:00 PM
I-270 at I-370 78 76 70 None Calm Calm SE 94 - 96 9/18/2018 4:45:00 PM
I-270 at MD-109 81 76 73 None 4 mph 10 mph NW 93 - 94 9/18/2018 4:45:00 PM
I-495 at American Legion Bridge 82 65 70 None Calm 8 mph NE 99 - 99 9/18/2018 4:45:00 PM
I-68 at Savage Mt 72 72 63 None 7 mph 20 mph NW 92 - 94 9/18/2018 4:45:00 PM
I-68 at Sideling Hill 77 74 68 Rain 8 mph 22 mph N 94 - 95 9/18/2018 4:45:00 PM
I-68 at US 219 72 76 65 None 6 mph 21 mph NW 92 - 92 9/18/2018 4:45:00 PM
I-68 at WV Line 74 72 64 None 5 mph 11 mph NW 88 - 88 9/18/2018 4:45:00 PM
I-695 at I-83 82 69 71 None 4 mph 10 mph N 88 - 90 9/18/2018 4:45:00 PM
I-695 on FSK Bridge 77 78 70 None 11 mph 14 mph SE 80 - 80 9/18/2018 4:48:00 PM
I-70 at Fred-Wash Co. 76 84 71 None 6 mph 16 mph NW 80 - 84 9/18/2018 4:45:00 PM
I-70 at I-695 80 74 71 None Calm 8 mph NE 84 - 91 9/18/2018 4:45:00 PM
I-70 at I-81 82 61 67 None 11 mph 19 mph N 94 - 94 9/18/2018 4:45:00 PM
I-70 at MD-27 80 74 71 None Calm 9 mph NW 94 - 95 9/18/2018 4:45:00 PM
I-70 at MD-32 82 69 71 None Calm 6 mph SE 98 - 99 9/18/2018 4:45:00 PM
I-83 at MD-137 83 89 79 None Calm 8 mph NW 97 - 97 9/18/2018 4:45:00 PM
I-95 at I-695 NE 78 73 69 None Calm 6 mph N 82 - 82 9/18/2018 4:48:00 PM
I-95 at Patuxent River 80 80 73 None 5 mph 10 mph NE 91 - 91 9/18/2018 4:45:00 PM
I-95 at Tydings Bridge 77 84 71 None Calm 4 mph N 85 - 85 9/18/2018 4:45:00 PM
I-95/495 at I-295 81 70 71 None 7 mph 15 mph N 83 - 88 9/18/2018 4:45:00 PM
I-97 at MD-100 78 76 70 None 6 mph 13 mph N 86 - 87 9/18/2018 4:45:00 PM
I-97 at MD-32 76 81 70 None 4 mph 8 mph NE 82 - 82 9/18/2018 4:45:00 PM
IS 70 W of I-270 - - - No Data Available - - No Data Available 99 - 99 9/18/2018 4:45:00 PM
MD 136 @ MD 646 78 79 71 No Data Available Calm 6 mph NW 93 - 93 9/18/2018 4:45:00 PM
MD 20 at MD 21 76 86 71 None Calm 8 mph N 85 - 85 9/18/2018 4:45:00 PM
MD 23 at Meadowtree Road 78 71 68 No Data Available Calm 7 mph N 83 - 83 9/18/2018 4:45:00 PM
MD 231 at Patuxent River 73 99 73 None 8 mph 15 mph N 78 - 78 9/18/2018 4:45:00 PM
MD 24 at Jarrettsville Road 79 74 70 No Data Available Calm 11 mph NW 93 - 93 9/18/2018 4:45:00 PM
MD 260 at Cox Rd 73 98 72 None Calm Calm NE 80 - 80 9/18/2018 4:45:00 PM
MD-135 at Salt Dome 71 84 66 None 4 mph 19 mph SW 91 - 91 9/18/2018 4:45:00 PM
MD-140 at MD-97 80 67 68 None 10 mph 26 mph N 93 - 96 9/18/2018 4:45:00 PM
MD-200 EB at Bonifant Rd - - - No Data Available - - No Data Available -
MD-200 WB at Muncaster Mill Rd 81 73 71 None Calm 7 mph SE 92 - 92 9/18/2018 4:47:00 PM
MD-213 at Sassafras River 78 83 73 None 4 mph 12 mph N 79 - 79 9/18/2018 4:45:00 PM
MD-24 at Rock St Park 76 97 75 None Calm Calm NW 80 - 80 9/18/2018 4:45:00 PM
MD-30 at PA Line 78 80 71 None 10 mph 21 mph NW 96 - 96 9/18/2018 4:45:00 PM
MD-33 at Knapps Narrows Drawbridge 75 95 74 None 12 mph 19 mph NW 81 - 81 9/18/2018 4:45:00 PM
MD-344 at MD-224 80 75 71 None Calm 9 mph NW 91 - 91 9/18/2018 4:45:00 PM
MD-4 at Patuxent River 75 100 75 None 15 mph 18 mph N 80 - 80 9/18/2018 4:48:00 PM
MD-404 at Choptank River 75 92 72 None 5 mph 11 mph NW 84 - 86 9/18/2018 4:45:00 PM
MD-43 at MD-150 78 82 72 None Calm 4 mph N 83 - 83 9/18/2018 4:45:00 PM
MD-51 at Oldtown Salt Dome 84 54 66 None Calm 8 mph NW 104 - 104 9/18/2018 4:45:00 PM
MD-64 at MD-418 81 61 66 None 13 mph 18 mph NW 97 - 99 9/18/2018 4:45:00 PM
US 301 at MD 305 74 94 73 None Calm 5 mph NW 81 - 83 9/18/2018 4:45:00 PM
US-1 at Baltimore / Harford Co. Line 76 87 72 None Calm 4 mph N 82 - 84 9/18/2018 4:45:00 PM
US-1 at Conowingo Dam 77 96 76 None Calm Calm N 88 - 88 9/18/2018 4:45:00 PM
US-13 at US-113 82 73 72 None 9 mph 16 mph W 104 - 105 9/18/2018 4:45:00 PM
US-13 at US-50 82 71 72 None 5 mph 13 mph W 97 - 97 9/18/2018 4:45:00 PM
US-15 at MD-140 86 58 69 None Calm 7 mph N 103 - 99 9/18/2018 4:45:00 PM
US-301 at MD-5 76 92 74 None Calm 7 mph N 86 - 88 9/18/2018 4:45:00 PM
US-301 at Potomac 81 80 75 None 4 mph 6 mph N 81 - 81 9/18/2018 4:48:00 PM
US-340 at MD-180 80 67 68 None 9 mph 15 mph NW 98 - 99 9/18/2018 4:45:00 PM
US-50 at Choptank 77 94 75 Rain 11 mph 21 mph NW 88 - 90 9/18/2018 4:45:00 PM
US-50 at I-95 78 83 72 None Calm 6 mph N 85 - 86 9/18/2018 4:45:00 PM
US-50 at MD-2 76 89 73 None 5 mph 10 mph N 82 - 84 9/18/2018 4:45:00 PM
US-50 at MD-331 81 78 74 None 5 mph 8 mph W 94 - 97 9/18/2018 4:45:00 PM
US-50 at OC Drawbridge 83 75 75 None Calm 8 mph SW 96 - 96 9/18/2018 4:45:00 PM
US-50 at Table Rock Rd 68 85 64 None 6 mph 10 mph NW 92 - 92 9/18/2018 4:45:00 PM
US-50 Kent Narrow Bridge 75 100 75 None 9 mph 13 mph NW 78 - 79 9/18/2018 4:45:00 PM
WPL Pier 31 74 88 71 None 20 mph 22 mph NW 84 - 84 9/18/2018 4:47:00 PM
Location Air RH Dwp Precip Type Wind Speed Wind Gust Direction Pavement Temperature Date/Time